Time;durP1;ratioP1;P1;durP2;ratioP2;P2;SDS_P1;SDS_P2;PMS_P1;PMS_P2;Temp;Humidity;BMP_temperature;BMP_pressure;BME280_temperature;BME280_humidity;BME280_pressure;Samples;Min_cycle;Max_cycle;Signal;HPM_P1;HPM_P2
2022/09/27 00:02:53;;;;;;;2.27;1.75;;;;;;;12.70;100.00;98803.34;2754245;85;21044;-62
2022/09/27 00:06:54;;;;;;;3.67;2.42;;;;;;;12.88;100.00;98798.23;2720962;87;21047;-62
2022/09/27 00:11:03;;;;;;;3.08;2.17;;;;;;;13.07;100.00;98757.39;2735130;87;21061;-62
2022/09/27 00:15:08;;;;;;;4.58;3.67;;;;;;;13.23;100.00;98730.56;2657751;88;21037;-62
2022/09/27 00:19:15;;;;;;;5.03;4.05;;;;;;;13.35;100.00;98721.59;2793129;84;20993;-62
2022/09/27 00:23:23;;;;;;;6.67;2.83;;;;;;;13.14;100.00;98731.62;2759557;85;20946;-61
2022/09/27 00:27:26;;;;;;;6.80;3.60;;;;;;;13.13;100.00;98709.95;2797217;84;20987;-61
2022/09/27 00:31:30;;;;;;;2.67;2.25;;;;;;;13.13;100.00;98702.78;2800893;85;21039;-62
2022/09/27 00:35:31;;;;;;;2.52;2.33;;;;;;;13.15;100.00;98698.58;2818150;83;20989;-62
2022/09/27 00:39:32;;;;;;;4.78;3.90;;;;;;;13.16;100.00;98684.22;2797430;84;21314;-61
2022/09/27 00:43:51;;;;;;;2.35;1.55;;;;;;;13.13;100.00;98684.59;2800541;83;20975;-62
2022/09/27 00:47:57;;;;;;;1.40;1.30;;;;;;;13.06;100.00;98693.01;2791422;84;21308;-62
2022/09/27 00:52:17;;;;;;;2.87;1.67;;;;;;;13.05;100.00;98692.69;2791922;84;20968;-62
2022/09/27 00:56:23;;;;;;;1.52;1.42;;;;;;;12.97;100.00;98682.91;2804570;82;21032;-62
2022/09/27 01:00:36;;;;;;;1.75;1.65;;;;;;;12.97;100.00;98679.75;2733420;86;21028;-62
2022/09/27 01:04:40;;;;;;;2.45;2.25;;;;;;;12.93;100.00;98685.10;2754343;84;21051;-62
2022/09/27 01:08:41;;;;;;;2.72;2.25;;;;;;;12.91;100.00;98693.80;2737293;81;21004;-62
2022/09/27 01:13:19;;;;;;;1.92;1.75;;;;;;;12.80;100.00;98681.72;2736853;86;21032;-62
2022/09/27 01:17:41;;;;;;;4.22;2.22;;;;;;;12.72;100.00;98672.45;2688869;86;21091;-62
2022/09/27 01:22:08;;;;;;;7.03;4.53;;;;;;;12.54;100.00;98658.08;2733730;86;21425;-62
2022/09/27 01:26:18;;;;;;;9.93;7.10;;;;;;;12.27;100.00;98649.09;2732470;86;21032;-63
2022/09/27 01:30:28;;;;;;;10.53;9.23;;;;;;;12.11;100.00;98646.05;2751622;86;21099;-62
2022/09/27 01:35:04;;;;;;;11.33;8.63;;;;;;;11.94;100.00;98643.95;2754416;85;21079;-62
2022/09/27 01:39:17;;;;;;;8.07;7.37;;;;;;;11.95;100.00;98636.77;2743078;86;21036;-62
2022/09/27 01:43:39;;;;;;;11.28;9.13;;;;;;;11.92;100.00;98633.13;2758969;86;21060;-60
2022/09/27 01:47:54;;;;;;;12.10;9.98;;;;;;;11.96;100.00;98631.28;2668063;89;21062;-60
2022/09/27 01:52:02;;;;;;;13.15;9.10;;;;;;;11.93;100.00;98624.98;2668177;89;21015;-60
2022/09/27 01:56:08;;;;;;;17.60;11.33;;;;;;;11.82;100.00;98632.02;2630189;89;21025;-60
2022/09/27 02:00:12;;;;;;;14.68;9.80;;;;;;;11.65;100.00;98627.29;2645769;89;21024;-60
2022/09/27 02:04:19;;;;;;;14.70;10.93;;;;;;;11.53;100.00;98616.19;2667175;89;21137;-60
2022/09/27 02:08:51;;;;;;;15.18;10.00;;;;;;;11.47;100.00;98611.05;2662244;88;21043;-61
2022/09/27 02:13:16;;;;;;;13.10;9.68;;;;;;;11.54;100.00;98607.20;2667001;89;21169;-60
2022/09/27 02:18:03;;;;;;;11.68;9.63;;;;;;;11.63;100.00;98604.00;2648802;88;20983;-60
2022/09/27 02:22:42;;;;;;;10.63;7.97;;;;;;;11.73;100.00;98599.27;2731536;84;20964;-61
2022/09/27 02:26:48;;;;;;;11.22;9.13;;;;;;;11.85;100.00;98591.22;2769892;85;21024;-60
2022/09/27 02:30:50;;;;;;;13.20;9.40;;;;;;;12.00;100.00;98594.47;2804961;83;20988;-60
2022/09/27 02:34:54;;;;;;;13.58;8.95;;;;;;;12.05;100.00;98588.12;2806481;83;21067;-61
2022/09/27 02:38:56;;;;;;;15.75;11.35;;;;;;;12.09;100.00;98577.95;2784109;83;21029;-60
2022/09/27 02:42:59;;;;;;;10.75;9.30;;;;;;;12.18;100.00;98569.36;2789155;82;21079;-60
2022/09/27 02:47:14;;;;;;;16.00;12.65;;;;;;;12.21;100.00;98565.03;2783993;83;21040;-60
2022/09/27 02:51:30;;;;;;;22.20;16.70;;;;;;;12.16;100.00;98560.72;2750796;85;21054;-60
2022/09/27 02:55:37;;;;;;;16.93;11.60;;;;;;;12.13;100.00;98552.08;2745830;85;21722;-60
2022/09/27 03:00:06;;;;;;;12.63;9.60;;;;;;;11.82;100.00;98564.09;2755689;85;20985;-60
2022/09/27 03:04:32;;;;;;;12.98;10.32;;;;;;;11.54;100.00;98552.09;2793686;85;21080;-60
2022/09/27 03:08:33;;;;;;;13.35;11.45;;;;;;;11.40;100.00;98558.18;2720327;86;21042;-60
2022/09/27 03:12:35;;;;;;;13.10;10.18;;;;;;;11.33;100.00;98555.86;2694535;88;21058;-60
2022/09/27 03:16:36;;;;;;;10.82;9.28;;;;;;;11.39;100.00;98549.84;2703598;88;21002;-60
2022/09/27 03:20:37;;;;;;;13.75;9.33;;;;;;;11.38;100.00;98538.86;2703425;86;21026;-59
2022/09/27 03:24:38;;;;;;;12.03;9.25;;;;;;;11.31;100.00;98533.92;2724466;86;21034;-59
2022/09/27 03:28:39;;;;;;;14.38;10.23;;;;;;;11.26;100.00;98533.94;2794172;84;21087;-59
2022/09/27 03:32:45;;;;;;;10.63;8.10;;;;;;;11.32;100.00;98530.25;2816478;83;20964;-59
2022/09/27 03:36:46;;;;;;;;;;;;;;;11.41;100.00;98531.88;2812823;81;21016;-59
2022/09/27 03:40:48;;;;;;;10.23;8.05;;;;;;;11.46;100.00;98528.19;2790404;83;20100;-60
2022/09/27 03:44:50;;;;;;;15.20;9.08;;;;;;;11.44;100.00;98524.88;2791163;81;21016;-59
2022/09/27 03:48:52;;;;;;;9.80;8.15;;;;;;;11.51;100.00;98517.83;2789477;84;21051;-59
2022/09/27 03:52:53;;;;;;;10.03;8.73;;;;;;;11.51;100.00;98515.17;2775676;82;21024;-60
2022/09/27 03:56:54;;;;;;;11.75;9.30;;;;;;;11.48;100.00;98515.52;2804252;83;21039;-60
2022/09/27 04:01:04;;;;;;;13.20;10.53;;;;;;;11.58;100.00;98500.14;2803379;85;21259;-59
2022/09/27 04:05:06;;;;;;;15.23;9.80;;;;;;;11.71;100.00;98484.09;2805144;84;20981;-60
2022/09/27 04:09:08;;;;;;;10.15;8.78;;;;;;;11.84;100.00;98486.15;2793709;85;21023;-59
2022/09/27 04:13:11;;;;;;;10.20;7.95;;;;;;;11.95;100.00;98485.74;2805250;83;20973;-59
2022/09/27 04:17:13;;;;;;;13.05;9.95;;;;;;;12.04;100.00;98471.88;2805299;85;21821;-58
2022/09/27 04:21:30;;;;;;;12.30;8.53;;;;;;;12.05;100.00;98458.03;2804491;85;21086;-59
2022/09/27 04:25:32;;;;;;;9.85;8.30;;;;;;;12.04;100.00;98452.38;2804493;85;21055;-59
2022/09/27 04:29:33;;;;;;;9.20;7.12;;;;;;;12.06;100.00;98448.54;2809018;83;21021;-59
2022/09/27 04:33:34;;;;;;;8.63;6.78;;;;;;;12.08;100.00;98443.86;2829018;80;21287;-59
2022/09/27 04:37:35;;;;;;;8.23;7.30;;;;;;;12.07;100.00;98448.86;2706363;85;21001;-59
2022/09/27 04:41:36;;;;;;;14.50;10.23;;;;;;;12.20;100.00;98450.09;2771805;85;20953;-59
2022/09/27 04:45:39;;;;;;;10.58;7.95;;;;;;;12.21;100.00;98441.89;2805488;85;21087;-59
2022/09/27 04:49:40;;;;;;;8.63;7.72;;;;;;;12.33;100.00;98442.27;2801983;83;21056;-59
2022/09/27 04:53:50;;;;;;;9.23;7.08;;;;;;;12.31;100.00;98441.62;2782448;83;21036;-60
2022/09/27 04:57:52;;;;;;;9.25;7.37;;;;;;;12.35;100.00;98444.25;2813517;83;21024;-61
2022/09/27 05:01:53;;;;;;;8.38;7.53;;;;;;;12.30;100.00;98446.64;2801573;84;20981;-60
2022/09/27 05:05:54;;;;;;;12.80;9.90;;;;;;;12.31;100.00;98445.63;2795076;85;21074;-60
2022/09/27 05:09:55;;;;;;;33.42;27.95;;;;;;;12.32;100.00;98431.29;2826856;83;21047;-60
2022/09/27 05:13:57;;;;;;;32.65;18.00;;;;;;;12.35;100.00;98430.92;2807006;84;21027;-60
2022/09/27 05:17:58;;;;;;;12.95;9.08;;;;;;;12.40;100.00;98433.05;2838612;82;21044;-60
2022/09/27 05:22:01;;;;;;;12.47;7.45;;;;;;;12.40;100.00;98431.22;2819884;83;21004;-60
2022/09/27 05:26:06;;;;;;;9.45;7.80;;;;;;;12.30;100.00;98433.83;2823624;83;21048;-60
2022/09/27 05:30:26;;;;;;;12.03;7.08;;;;;;;12.19;100.00;98425.26;2838556;82;21029;-60
2022/09/27 05:34:27;;;;;;;9.93;7.75;;;;;;;12.02;100.00;98424.60;2835621;84;21083;-60
2022/09/27 05:38:29;;;;;;;9.53;7.72;;;;;;;11.97;100.00;98426.44;2836750;83;20984;-59
2022/09/27 05:42:30;;;;;;;11.53;8.53;;;;;;;11.95;100.00;98429.79;2799637;85;20990;-59
2022/09/27 05:46:32;;;;;;;11.90;8.40;;;;;;;11.91;100.00;98424.50;2826923;84;21005;-60
2022/09/27 05:50:33;;;;;;;10.25;7.45;;;;;;;11.78;100.00;98426.42;2841982;83;21035;-60
2022/09/27 05:54:44;;;;;;;9.98;7.40;;;;;;;11.84;100.00;98415.06;2804701;83;20992;-60
2022/09/27 05:58:45;;;;;;;11.03;7.80;;;;;;;11.81;100.00;98414.09;2800034;83;21095;-60
2022/09/27 06:02:59;;;;;;;13.22;9.25;;;;;;;11.79;100.00;98405.95;2798780;85;21032;-60
2022/09/27 06:07:01;;;;;;;12.88;7.90;;;;;;;11.75;100.00;98408.66;2804100;81;21000;-60
2022/09/27 06:11:06;;;;;;;12.00;9.28;;;;;;;11.66;100.00;98404.71;2813965;83;21017;-60
2022/09/27 06:15:09;;;;;;;8.83;7.37;;;;;;;11.73;100.00;98411.48;2805390;84;21024;-59
2022/09/27 06:19:10;;;;;;;18.27;8.05;;;;;;;11.66;100.00;98413.22;2793439;85;21024;-60
2022/09/27 06:23:17;;;;;;;8.98;7.87;;;;;;;11.69;100.00;98404.87;2787768;83;21028;-60
2022/09/27 06:27:18;;;;;;;10.50;7.70;;;;;;;11.79;100.00;98399.30;2774921;85;21063;-60
2022/09/27 06:43:44;;;;;;;9.43;7.62;;;;;;;12.11;100.00;98404.03;3026681;77;22751;-88
2022/09/27 06:47:45;;;;;;;7.62;6.85;;;;;;;12.05;100.00;98401.58;2956669;79;21018;-88
2022/09/27 06:51:47;;;;;;;9.28;8.25;;;;;;;12.02;100.00;98407.28;2953019;79;21560;-88
2022/09/27 06:55:50;;;;;;;6.00;5.40;;;;;;;11.97;100.00;98403.79;2961536;79;21053;-88
2022/09/27 07:04:12;;;;;;;8.53;6.40;;;;;;;12.01;100.00;98412.28;2962820;80;20988;-88
2022/09/27 07:08:13;;;;;;;10.05;6.80;;;;;;;12.14;100.00;98413.80;2958630;80;21022;-89
2022/09/27 07:12:14;;;;;;;9.15;6.55;;;;;;;12.21;100.00;98416.58;2961841;79;21067;-89
2022/09/27 07:16:15;;;;;;;8.75;7.85;;;;;;;12.35;100.00;98418.92;2966588;79;20971;-89
2022/09/27 07:20:16;;;;;;;9.88;7.83;;;;;;;12.38;100.00;98419.91;2966053;79;21027;-89
2022/09/27 07:24:18;;;;;;;12.85;8.65;;;;;;;12.46;100.00;98419.48;2959539;80;21042;-89
2022/09/27 07:28:19;;;;;;;11.48;9.58;;;;;;;12.61;100.00;98422.98;2959042;79;20994;-89
2022/09/27 07:32:20;;;;;;;12.58;8.60;;;;;;;12.73;100.00;98412.67;2958738;79;21015;-89
2022/09/27 07:36:21;;;;;;;12.95;9.95;;;;;;;12.81;100.00;98414.41;2964125;79;21054;-90
2022/09/27 07:40:24;;;;;;;13.30;8.60;;;;;;;12.93;100.00;98410.23;2946004;78;20991;-90
2022/09/27 07:44:25;;;;;;;11.85;8.43;;;;;;;13.13;100.00;98412.30;2966593;80;20987;-90
2022/09/27 07:48:27;;;;;;;10.80;7.15;;;;;;;13.27;100.00;98413.30;2959230;79;21531;-90
2022/09/27 07:52:28;;;;;;;10.13;8.33;;;;;;;13.18;100.00;98415.25;2956690;79;21081;-89
2022/09/27 07:56:29;;;;;;;9.98;7.20;;;;;;;13.21;100.00;98406.86;2948865;79;21444;-89
2022/09/27 08:00:30;;;;;;;9.05;5.87;;;;;;;13.17;100.00;98409.59;2962042;79;21474;-89
2022/09/27 08:04:32;;;;;;;14.60;7.50;;;;;;;13.03;100.00;98404.59;2956837;79;21490;-90
2022/09/27 08:08:33;;;;;;;8.90;8.10;;;;;;;12.94;100.00;98405.21;2924396;80;21015;-89
2022/09/27 08:12:34;;;;;;;9.65;7.33;;;;;;;12.95;100.00;98408.72;2933275;80;21530;-89
2022/09/27 08:16:35;;;;;;;13.38;8.95;;;;;;;13.05;100.00;98411.91;2964703;79;21463;-89
2022/09/27 08:20:36;;;;;;;11.10;8.25;;;;;;;13.01;100.00;98410.63;2965291;80;21027;-89
2022/09/27 08:24:37;;;;;;;8.75;7.67;;;;;;;13.00;100.00;98408.98;2957914;80;21015;-90
2022/09/27 08:28:38;;;;;;;8.28;6.30;;;;;;;13.03;100.00;98412.60;2918362;80;20999;-89
2022/09/27 08:32:39;;;;;;;10.35;7.15;;;;;;;12.96;100.00;98407.19;2951989;80;21038;-90
2022/09/27 08:36:43;;;;;;;8.68;7.62;;;;;;;13.02;100.00;98405.61;2953014;79;21090;-90
2022/09/27 08:40:55;;;;;;;10.30;8.78;;;;;;;13.13;100.00;98407.80;2961715;79;21611;-89
2022/09/27 08:45:23;;;;;;;9.10;7.55;;;;;;;13.16;100.00;98413.25;2970879;80;21577;-90
2022/09/27 08:50:16;;;;;;;8.05;6.97;;;;;;;13.14;100.00;98413.95;2971584;79;21486;-90
2022/09/27 08:54:29;;;;;;;8.23;7.03;;;;;;;13.20;100.00;98405.21;2969559;80;20987;-90
2022/09/27 08:58:38;;;;;;;9.95;6.92;;;;;;;13.25;100.00;98406.80;2971692;79;20999;-90
2022/09/27 09:02:40;;;;;;;8.43;7.35;;;;;;;13.31;100.00;98401.70;2971355;78;21140;-89
2022/09/27 09:07:28;;;;;;;9.80;7.12;;;;;;;13.49;100.00;98402.13;2971693;80;21046;-89
2022/09/27 09:16:38;;;;;;;10.70;7.28;;;;;;;13.67;100.00;98401.69;2971519;80;21054;-90
2022/09/27 09:21:12;;;;;;;9.48;7.35;;;;;;;13.76;100.00;98405.05;2971790;80;21137;-89
2022/09/27 09:25:37;;;;;;;9.73;8.05;;;;;;;13.90;100.00;98399.80;2971327;80;21545;-90
2022/09/27 09:30:04;;;;;;;7.65;6.65;;;;;;;13.84;100.00;98390.20;2946657;80;21137;-90
2022/09/27 09:34:36;;;;;;;10.80;7.65;;;;;;;13.96;100.00;98378.99;2972031;77;20972;-90
2022/09/27 09:38:53;;;;;;;11.08;6.92;;;;;;;13.99;100.00;98378.59;2971842;79;21034;-89
2022/09/27 09:43:24;;;;;;;6.45;5.17;;;;;;;14.11;100.00;98378.88;2974512;79;21015;-90
2022/09/27 09:48:10;;;;;;;8.78;6.03;;;;;;;14.12;100.00;98365.30;2976481;80;21019;-89
2022/09/27 09:52:18;;;;;;;6.87;5.45;;;;;;;14.09;100.00;98363.55;2976003;79;20955;-89
2022/09/27 09:56:32;;;;;;;7.25;6.55;;;;;;;14.25;100.00;98369.92;2975992;78;21603;-89
2022/09/27 10:00:33;;;;;;;10.25;7.75;;;;;;;14.32;100.00;98375.81;2975696;80;21038;-89
2022/09/27 10:04:34;;;;;;;10.58;7.58;;;;;;;14.43;100.00;98369.89;2976482;79;21023;-90
2022/09/27 10:08:36;;;;;;;7.28;5.03;;;;;;;14.37;100.00;98370.20;2976417;79;21014;-89
2022/09/27 10:12:37;;;;;;;5.92;4.12;;;;;;;14.39;100.00;98345.91;2935613;80;21003;-90
2022/09/27 10:16:42;;;;;;;3.55;2.92;;;;;;;14.52;100.00;98354.50;2976900;80;20983;-90
2022/09/27 10:20:51;;;;;;;5.95;2.70;;;;;;;14.72;100.00;98354.63;2976405;79;21086;-90
2022/09/27 10:24:57;;;;;;;2.77;2.58;;;;;;;14.83;100.00;98352.70;2969642;80;20990;-90
2022/09/27 10:29:04;;;;;;;2.10;1.57;;;;;;;15.03;98.46;98345.77;2977455;79;21046;-90
2022/09/27 10:33:15;;;;;;;2.10;1.90;;;;;;;15.14;96.43;98341.16;2958858;79;20987;-90
2022/09/27 10:37:21;;;;;;;2.02;1.10;;;;;;;15.23;94.91;98345.28;2909404;80;20975;-89
2022/09/27 10:41:40;;;;;;;1.80;1.67;;;;;;;15.31;93.55;98341.59;2961047;79;21019;-89
2022/09/27 10:45:42;;;;;;;2.12;1.70;;;;;;;15.37;94.00;98342.10;2956658;80;21054;-90
2022/09/27 10:49:43;;;;;;;2.05;1.75;;;;;;;15.46;93.30;98344.59;2957858;79;21019;-90
2022/09/27 10:53:46;;;;;;;1.70;1.57;;;;;;;15.46;93.13;98346.75;2962559;80;20995;-90
2022/09/27 10:57:52;;;;;;;1.75;1.65;;;;;;;15.53;94.05;98347.59;2962325;79;21027;-90
2022/09/27 11:01:53;;;;;;;2.83;1.97;;;;;;;15.64;92.16;98342.62;2957185;80;21047;-90
2022/09/27 11:05:55;;;;;;;1.52;1.35;;;;;;;15.79;93.14;98345.92;2906868;80;21014;-90
2022/09/27 11:10:04;;;;;;;3.02;1.70;;;;;;;15.92;89.77;98345.65;2956134;79;21090;-90
2022/09/27 11:14:19;;;;;;;1.60;1.50;;;;;;;16.09;90.99;98341.47;2966441;79;20983;-90
2022/09/27 11:18:28;;;;;;;2.10;1.82;;;;;;;16.31;90.12;98337.21;2952920;79;20999;-90
2022/09/27 11:22:55;;;;;;;4.78;1.40;;;;;;;16.56;88.91;98325.77;2952615;79;21007;-90
2022/09/27 11:27:27;;;;;;;1.57;1.42;;;;;;;16.83;90.01;98332.33;2965393;80;21063;-89
2022/09/27 11:31:58;;;;;;;1.95;1.75;;;;;;;16.96;85.03;98323.38;2940049;80;21032;-90
2022/09/27 11:36:45;;;;;;;1.37;1.27;;;;;;;17.03;85.37;98313.47;2923798;81;21030;-89
2022/09/27 11:41:12;;;;;;;2.50;1.92;;;;;;;17.08;84.12;98314.14;2914021;81;21557;-90
2022/09/27 11:45:38;;;;;;;3.67;2.02;;;;;;;17.17;83.98;98312.85;2888761;81;21120;-90
2022/09/27 11:49:48;;;;;;;1.52;1.42;;;;;;;17.13;82.85;98311.11;2920665;80;21077;-90
2022/09/27 11:54:17;;;;;;;1.67;1.30;;;;;;;17.22;84.17;98307.64;2913358;80;21189;-89
2022/09/27 11:58:48;;;;;;;2.42;1.95;;;;;;;17.22;80.99;98307.64;2917126;80;21054;-90
2022/09/27 12:03:28;;;;;;;1.80;1.30;;;;;;;17.28;81.15;98297.89;2926992;81;21069;-89
2022/09/27 12:07:48;;;;;;;2.30;2.10;;;;;;;17.21;81.89;98300.63;2935122;80;21066;-90
2022/09/27 12:11:53;;;;;;;3.25;2.35;;;;;;;17.05;81.49;98299.80;2954013;80;21193;-89
2022/09/27 12:15:56;;;;;;;6.75;2.58;;;;;;;17.10;85.19;98304.03;2953075;80;20999;-89
2022/09/27 12:20:05;;;;;;;2.10;1.90;;;;;;;16.99;85.73;98293.42;2961978;80;20987;-90
2022/09/27 12:24:15;;;;;;;3.67;2.33;;;;;;;16.81;83.16;98299.00;2964010;80;21047;-89
2022/09/27 12:28:58;;;;;;;1.55;1.45;;;;;;;16.85;84.10;98299.38;2955439;80;21471;-89
2022/09/27 12:33:30;;;;;;;6.60;1.98;;;;;;;16.82;83.31;98302.50;2954069;80;21070;-90
2022/09/27 12:37:37;;;;;;;2.00;1.55;;;;;;;16.79;84.72;98297.56;2952844;80;20991;-90
2022/09/27 12:41:43;;;;;;;3.50;1.47;;;;;;;16.83;86.54;98304.14;2953701;79;20995;-89
2022/09/27 12:46:16;;;;;;;3.17;1.65;;;;;;;16.82;84.42;98310.05;2977653;80;21605;-89
2022/09/27 12:50:38;;;;;;;1.70;1.50;;;;;;;16.79;85.07;98307.77;2977745;80;21049;-89
2022/09/27 12:55:12;;;;;;;5.33;2.87;;;;;;;16.82;85.73;98312.73;2972940;80;21715;-90
2022/09/27 12:59:43;;;;;;;3.17;2.85;;;;;;;16.80;84.34;98304.58;2977556;77;21608;-90
2022/09/27 13:04:29;;;;;;;2.15;1.30;;;;;;;16.92;86.02;98306.89;2976867;80;20956;-90
2022/09/27 13:08:36;;;;;;;7.20;2.90;;;;;;;16.96;85.46;98304.07;2976232;79;21022;-90
2022/09/27 13:12:41;;;;;;;3.02;1.90;;;;;;;16.86;83.61;98302.36;2974414;78;20999;-89
2022/09/27 13:16:45;;;;;;;1.60;1.50;;;;;;;16.84;84.72;98305.28;2948351;80;21042;-90
2022/09/27 13:20:48;;;;;;;4.45;2.02;;;;;;;16.66;83.62;98303.83;2976446;79;21192;-89
2022/09/27 13:24:49;;;;;;;2.33;1.50;;;;;;;16.56;83.36;98301.07;2942413;80;21026;-90
2022/09/27 13:29:00;;;;;;;2.80;2.42;;;;;;;16.46;84.27;98293.17;2948552;80;21015;-91
2022/09/27 13:33:15;;;;;;;3.35;1.15;;;;;;;16.40;84.36;98283.61;2976030;78;20994;-91
2022/09/27 13:37:50;;;;;;;3.62;1.62;;;;;;;16.32;85.79;98279.83;2976489;80;21035;-90
2022/09/27 13:42:00;;;;;;;1.98;1.87;;;;;;;16.21;85.30;98282.66;2968742;80;21153;-90
2022/09/27 13:46:07;;;;;;;5.17;2.77;;;;;;;16.29;87.57;98278.89;2970079;78;20959;-90
2022/09/27 13:50:28;;;;;;;10.35;4.30;;;;;;;16.22;86.79;98284.31;2972217;80;21015;-89
2022/09/27 13:54:56;;;;;;;4.35;3.00;;;;;;;16.26;87.43;98279.32;2958091;80;21042;-89
2022/09/27 13:59:00;;;;;;;3.83;2.42;;;;;;;16.30;86.81;98280.53;2958726;77;21015;-90
2022/09/27 14:03:18;;;;;;;5.20;3.00;;;;;;;16.19;87.19;98277.19;2948009;78;21097;-89
2022/09/27 14:07:21;;;;;;;3.75;2.83;;;;;;;16.17;87.52;98277.39;2960619;79;21002;-89
2022/09/27 14:11:28;;;;;;;;;;;;;;;16.14;87.65;98279.16;2961626;78;21551;-90
2022/09/27 14:15:31;;;;;;;4.03;3.17;;;;;;;16.13;87.63;98291.77;2960909;78;20154;-89
2022/09/27 14:19:37;;;;;;;13.13;8.58;;;;;;;16.13;87.17;98290.42;2966137;78;21317;-89
2022/09/27 14:23:38;;;;;;;;;;;;;;;16.10;89.13;98290.81;2968749;78;21031;-89
2022/09/27 14:27:39;;;;;;;18.62;11.10;;;;;;;16.17;89.31;98299.38;2963823;78;20126;-89
2022/09/27 14:31:41;;;;;;;18.05;11.22;;;;;;;16.20;90.68;98302.98;2966625;79;21541;-87
2022/09/27 14:40:19;;;;;;;12.73;9.10;;;;;;;16.18;89.80;98299.16;2960173;80;21420;-88
2022/09/27 14:44:21;;;;;;;9.65;6.37;;;;;;;16.21;90.18;98312.67;2969196;79;21050;-88
2022/09/27 14:48:31;;;;;;;8.00;5.83;;;;;;;16.22;89.17;98304.92;2963140;78;21007;-89
2022/09/27 14:52:34;;;;;;;5.30;3.08;;;;;;;16.35;90.13;98303.55;2935725;80;21549;-89
2022/09/27 14:56:37;;;;;;;3.02;1.95;;;;;;;16.57;90.91;98309.96;2963733;80;21077;-89
2022/09/27 15:00:40;;;;;;;1.85;1.40;;;;;;;16.74;90.58;98315.65;2949120;79;20995;-89
2022/09/27 15:04:45;;;;;;;1.57;0.98;;;;;;;16.86;88.92;98315.79;2938032;78;20983;-89
2022/09/27 15:08:49;;;;;;;2.60;1.75;;;;;;;16.85;87.79;98325.72;2964135;80;21153;-89
2022/09/27 15:12:56;;;;;;;13.03;0.57;;;;;;;16.54;85.74;98343.41;2972516;78;21046;-89
2022/09/27 15:17:00;;;;;;;1.10;0.30;;;;;;;15.66;83.43;98355.30;2932146;78;21312;-89
2022/09/27 15:21:00;;;;;;;2.87;1.25;;;;;;;14.90;88.68;98382.17;2957294;78;21053;-87
2022/09/27 15:25:34;;;;;;;0.68;0.40;;;;;;;14.38;91.78;98385.22;2925405;79;21070;-88
2022/09/27 15:29:35;;;;;;;0.62;0.45;;;;;;;14.13;90.59;98393.69;2961023;79;20964;-88
2022/09/27 15:33:37;;;;;;;0.45;0.42;;;;;;;13.83;90.80;98399.24;2978012;78;21011;-88
2022/09/27 15:37:39;;;;;;;1.75;0.45;;;;;;;13.66;94.42;98405.88;2898927;79;21538;-88
2022/09/27 15:42:11;;;;;;;0.28;0.20;;;;;;;13.51;96.03;98407.29;2968950;79;21100;-88
2022/09/27 15:46:37;;;;;;;1.12;0.80;;;;;;;13.33;97.53;98409.02;2940461;79;21038;-87
2022/09/27 15:50:40;;;;;;;0.80;0.40;;;;;;;13.25;99.15;98410.80;2951378;79;21003;-88
2022/09/27 15:54:41;;;;;;;1.70;0.70;;;;;;;13.19;99.64;98410.72;2949841;79;21039;-89
2022/09/27 15:58:43;;;;;;;1.10;0.40;;;;;;;13.16;100.00;98417.26;2952871;80;21015;-90
2022/09/27 16:02:45;;;;;;;0.65;0.42;;;;;;;13.16;100.00;98410.58;2955405;80;21006;-89
2022/09/27 16:06:46;;;;;;;1.70;0.60;;;;;;;13.18;100.00;98420.59;2950640;79;21541;-87
2022/09/27 16:10:52;;;;;;;3.27;0.60;;;;;;;13.17;100.00;98415.42;2944686;79;21546;-87
2022/09/27 16:14:53;;;;;;;1.23;0.73;;;;;;;13.25;100.00;98411.30;2951482;79;20959;-88
2022/09/27 16:18:54;;;;;;;1.12;0.60;;;;;;;13.26;100.00;98417.80;2899713;80;21652;-88
2022/09/27 16:22:56;;;;;;;0.60;0.57;;;;;;;13.33;100.00;98425.88;2921948;79;21011;-88
2022/09/27 16:26:58;;;;;;;1.02;0.45;;;;;;;13.35;100.00;98433.19;2948832;79;21042;-88
2022/09/27 16:31:03;;;;;;;1.15;0.88;;;;;;;13.32;100.00;98430.06;2845530;79;21011;-88
2022/09/27 16:35:05;;;;;;;3.45;1.00;;;;;;;13.24;100.00;98445.19;2952186;79;21082;-87
2022/09/27 16:39:11;;;;;;;1.45;1.02;;;;;;;13.24;100.00;98443.02;2932217;80;21006;-88
2022/09/27 16:43:12;;;;;;;0.60;0.50;;;;;;;13.16;100.00;98444.48;2933697;79;21625;-88
2022/09/27 16:47:13;;;;;;;0.50;0.50;;;;;;;13.18;100.00;98437.95;2947595;79;21038;-89
2022/09/27 16:55:39;;;;;;;1.60;0.75;;;;;;;13.10;99.15;98450.05;2959916;79;21539;-88
2022/09/27 16:59:40;;;;;;;1.50;0.60;;;;;;;13.06;98.28;98448.78;2948280;79;21041;-88
2022/09/27 17:03:45;;;;;;;2.47;1.27;;;;;;;12.96;97.62;98462.41;2954028;78;21023;-88
2022/09/27 17:07:50;;;;;;;2.40;1.60;;;;;;;12.91;97.60;98473.64;2956787;78;20999;-89
2022/09/27 17:11:51;;;;;;;3.22;2.12;;;;;;;12.94;97.83;98471.92;2956158;78;21090;-89
2022/09/27 17:15:53;;;;;;;2.75;1.25;;;;;;;12.91;96.97;98470.97;2954986;78;21627;-88
2022/09/27 17:19:54;;;;;;;2.20;1.05;;;;;;;12.89;97.01;98474.85;2964937;78;21463;-89
2022/09/27 17:23:55;;;;;;;1.72;1.47;;;;;;;12.78;97.01;98472.95;2940553;78;21090;-88
2022/09/27 17:27:56;;;;;;;3.42;1.72;;;;;;;12.77;96.89;98477.13;2871918;80;21014;-85
2022/09/27 17:31:59;;;;;;;3.83;1.27;;;;;;;12.77;96.58;98474.47;2947540;79;21077;-86
2022/09/27 17:36:01;;;;;;;2.45;1.02;;;;;;;12.75;96.18;98472.00;2966321;78;21018;-86
2022/09/27 17:40:04;;;;;;;2.25;0.68;;;;;;;12.74;96.17;98473.51;2953040;78;21534;-86
2022/09/27 17:44:06;;;;;;;4.75;1.22;;;;;;;12.66;96.45;98477.94;2956713;79;21022;-86
2022/09/27 17:52:27;;;;;;;0.75;0.75;;;;;;;12.61;96.73;98478.16;2958472;77;21649;-86
2022/09/27 17:56:29;;;;;;;1.45;1.30;;;;;;;12.57;97.59;98483.02;2961973;80;21081;-86
2022/09/27 18:00:30;;;;;;;1.57;1.05;;;;;;;12.59;97.56;98485.02;2959573;79;20987;-86
2022/09/27 18:04:31;;;;;;;3.00;1.45;;;;;;;12.57;96.96;98483.02;2940504;79;21041;-87
2022/09/27 18:08:33;;;;;;;3.25;1.85;;;;;;;12.55;97.17;98486.38;2964283;79;20990;-88
2022/09/27 18:12:34;;;;;;;3.12;1.60;;;;;;;12.50;97.54;98488.77;2960626;79;21012;-88
2022/09/27 18:16:41;;;;;;;2.40;2.17;;;;;;;12.49;97.77;98488.45;2897990;79;20999;-87
2022/09/27 18:20:42;;;;;;;2.17;1.27;;;;;;;12.48;98.11;98492.13;2966001;79;21014;-86
2022/09/27 18:24:43;;;;;;;3.42;1.07;;;;;;;12.43;97.65;98498.00;2961889;79;21054;-87
2022/09/27 18:28:44;;;;;;;2.15;0.90;;;;;;;12.42;97.01;98505.68;2950820;79;21014;-87
2022/09/27 18:32:46;;;;;;;1.45;1.35;;;;;;;12.38;97.45;98509.23;2960683;80;21042;-87
2022/09/27 18:36:47;;;;;;;1.35;1.25;;;;;;;12.34;97.33;98509.25;2958294;80;21041;-85
2022/09/27 18:40:48;;;;;;;2.22;1.75;;;;;;;12.30;97.17;98505.30;2955600;79;20998;-87
2022/09/27 18:44:49;;;;;;;2.00;1.55;;;;;;;12.24;96.52;98504.69;2939023;78;21039;-87
2022/09/27 18:48:51;;;;;;;1.72;1.60;;;;;;;12.18;96.45;98511.56;2941354;78;21015;-86
2022/09/27 18:52:52;;;;;;;2.75;1.87;;;;;;;12.13;96.29;98520.61;2871857;78;20995;-87
2022/09/27 18:56:54;;;;;;;3.70;2.00;;;;;;;12.04;96.41;98515.85;2944776;79;21050;-87
2022/09/27 19:01:01;;;;;;;7.55;2.17;;;;;;;11.98;95.37;98523.17;2961684;78;21351;-87
2022/09/27 19:05:02;;;;;;;3.92;2.55;;;;;;;11.91;96.24;98524.91;2951756;78;21037;-87
2022/09/27 19:09:06;;;;;;;2.77;2.08;;;;;;;11.93;96.63;98526.88;2931373;78;21019;-86
2022/09/27 19:13:07;;;;;;;2.65;2.00;;;;;;;11.91;96.40;98524.41;2908588;78;21386;-87
2022/09/27 19:17:09;;;;;;;4.08;2.17;;;;;;;11.90;96.41;98537.90;2953429;78;20978;-87
2022/09/27 19:21:13;;;;;;;2.67;1.50;;;;;;;11.92;96.07;98539.88;2978194;78;21002;-86
2022/09/27 19:25:14;;;;;;;5.17;2.02;;;;;;;11.92;95.31;98540.73;2980857;78;21011;-86
2022/09/27 19:29:15;;;;;;;2.47;1.35;;;;;;;11.82;95.27;98544.11;2980569;78;21039;-86
2022/09/27 19:33:17;;;;;;;3.15;1.70;;;;;;;11.77;95.83;98545.96;2979752;79;21069;-86
2022/09/27 19:37:18;;;;;;;2.62;1.27;;;;;;;11.77;95.48;98548.62;2965338;78;21003;-87
2022/09/27 19:41:19;;;;;;;5.87;1.70;;;;;;;11.77;95.06;98550.48;2931305;79;21050;-86
2022/09/27 19:45:20;;;;;;;3.80;2.87;;;;;;;11.78;94.93;98552.95;2954871;79;21007;-86
2022/09/27 19:49:22;;;;;;;2.83;2.10;;;;;;;11.73;94.24;98552.66;2954236;80;20983;-87
2022/09/27 19:53:24;;;;;;;3.05;2.52;;;;;;;11.70;93.97;98550.34;2960256;79;20999;-87